nws-alerts: Checking more than four warning/county codes can delay the loading of your pages. You should use a cron job to get the data.
EllijayWeather Station Historical Data
Daily Summary for April 12, 2019 Units:  English    Metric   Both
Daily Weekly Monthly Yearly Custom
  High: Low: Average:
Temperature: 76.1 °F 61.7 °F 68.7 °F
Dew Point: 66.2 °F 55.6 °F 61.1 °F
Humidity: 96% 51% 78%
Wind Speed: 4.0mph 0.0mph 0.1mph
Wind Gust: 6.0mph - -
Wind- - SE
Pressure: 30.03 in 29.91 in -
Precipitation: 0.36 in    
Historical Graphs
 
 
Tabular Data for April 12, 2019
Time Temperature Dew Point Pressure Wind Wind Speed Wind Gust Humidity Rainfall Rate (Hourly) solar
00:04 70.5 °F 59.4 °F 29.93 in Calm     68% 0.00 in meteobridge W/m2
00:09 70.3 °F 59.7 °F 29.92 in Calm     69% 0.00 in meteobridge W/m2
00:14 70.3 °F 59.7 °F 29.92 in Calm     69% 0.00 in meteobridge W/m2
00:19 70.3 °F 59.7 °F 29.92 in Calm     69% 0.00 in meteobridge W/m2
00:24 70.2 °F 59.5 °F 29.92 in Calm     69% 0.00 in meteobridge W/m2
00:29 70.2 °F 59.9 °F 29.93 in Calm     70% 0.00 in meteobridge W/m2
00:34 70.2 °F 59.9 °F 29.93 in Calm     70% 0.00 in meteobridge W/m2
00:39 70.0 °F 59.7 °F 29.93 in Calm     70% 0.00 in meteobridge W/m2
00:44 70.2 °F 60.3 °F 29.92 in Calm     71% 0.00 in meteobridge W/m2
00:49 70.3 °F 60.4 °F 29.92 in Calm     71% 0.00 in meteobridge W/m2
00:54 70.2 °F 60.3 °F 29.93 in Calm     71% 0.00 in meteobridge W/m2
00:59 70.2 °F 60.6 °F 29.93 in Calm     72% 0.00 in meteobridge W/m2
01:04 70.2 °F 60.6 °F 29.92 in Calm     72% 0.00 in meteobridge W/m2
01:09 70.2 °F 60.6 °F 29.93 in Calm     72% 0.00 in meteobridge W/m2
01:14 70.0 °F 60.6 °F 29.93 in Calm     72% 0.00 in meteobridge W/m2
01:19 70.0 °F 60.6 °F 29.93 in Calm     72% 0.00 in meteobridge W/m2
01:24 70.0 °F 60.6 °F 29.93 in Calm     72% 0.00 in meteobridge W/m2
01:29 69.8 °F 60.4 °F 29.93 in Calm     72% 0.00 in meteobridge W/m2
01:34 69.6 °F 60.6 °F 29.93 in Calm     73% 0.00 in meteobridge W/m2
01:39 69.6 °F 60.6 °F 29.93 in Calm     73% 0.00 in meteobridge W/m2
01:44 69.4 °F 60.4 °F 29.92 in Calm     73% 0.00 in meteobridge W/m2
01:49 69.4 °F 60.4 °F 29.93 in Calm     73% 0.00 in meteobridge W/m2
01:54 69.4 °F 60.4 °F 29.93 in Calm     73% 0.00 in meteobridge W/m2
01:59 69.3 °F 60.6 °F 29.93 in Calm     74% 0.00 in meteobridge W/m2
02:04 69.3 °F 60.6 °F 29.92 in Calm     74% 0.00 in meteobridge W/m2
02:09 69.3 °F 60.6 °F 29.92 in Calm     74% 0.00 in meteobridge W/m2
02:14 69.1 °F 60.8 °F 29.92 in Calm     75% 0.00 in meteobridge W/m2
02:19 69.1 °F 60.8 °F 29.92 in Calm     75% 0.00 in meteobridge W/m2
02:24 69.1 °F 60.8 °F 29.92 in Calm     75% 0.00 in meteobridge W/m2
02:29 69.1 °F 61.2 °F 29.92 in Calm     76% 0.00 in meteobridge W/m2
02:34 69.1 °F 61.2 °F 29.92 in Calm     76% 0.00 in meteobridge W/m2
02:39 68.7 °F 60.8 °F 29.92 in Calm     76% 0.00 in meteobridge W/m2
02:44 68.7 °F 61.2 °F 29.92 in Calm     77% 0.00 in meteobridge W/m2
02:49 68.2 °F 61.7 °F 29.92 in Calm     80% 0.00 in meteobridge W/m2
02:54 67.5 °F 61.3 °F 29.92 in Calm     81% 0.00 in meteobridge W/m2
02:59 67.3 °F 61.5 °F 29.92 in Calm     82% 0.00 in meteobridge W/m2
03:04 67.3 °F 61.0 °F 29.92 in Calm     80% 0.00 in meteobridge W/m2
03:09 67.5 °F 61.2 °F 29.91 in Calm     80% 0.00 in meteobridge W/m2
03:14 67.6 °F 61.2 °F 29.91 in Calm     80% 0.00 in meteobridge W/m2
03:19 67.6 °F 61.2 °F 29.91 in Calm     80% 0.00 in meteobridge W/m2
03:24 67.8 °F 61.3 °F 29.92 in Calm     80% 0.00 in meteobridge W/m2
03:29 67.6 °F 61.2 °F 29.91 in Calm     80% 0.00 in meteobridge W/m2
03:34 67.6 °F 61.2 °F 29.91 in Calm     80% 0.00 in meteobridge W/m2
03:39 67.6 °F 61.2 °F 29.91 in Calm     80% 0.00 in meteobridge W/m2
03:44 67.6 °F 61.2 °F 29.91 in Calm     80% 0.00 in meteobridge W/m2
03:49 67.6 °F 61.2 °F 29.91 in Calm     80% 0.00 in meteobridge W/m2
03:54 67.6 °F 61.2 °F 29.91 in Calm     80% 0.00 in meteobridge W/m2
03:59 67.6 °F 61.2 °F 29.91 in Calm     80% 0.00 in meteobridge W/m2
04:04 67.6 °F 61.2 °F 29.91 in Calm     80% 0.00 in meteobridge W/m2
04:09 67.6 °F 61.2 °F 29.91 in Calm     80% 0.00 in meteobridge W/m2
04:14 67.6 °F 61.2 °F 29.92 in Calm     80% 0.00 in meteobridge W/m2
04:19 67.6 °F 61.2 °F 29.92 in Calm     80% 0.00 in meteobridge W/m2
04:24 67.5 °F 61.2 °F 29.92 in Calm     80% 0.00 in meteobridge W/m2
04:29 67.5 °F 61.3 °F 29.92 in Calm     81% 0.00 in meteobridge W/m2
04:34 67.5 °F 61.2 °F 29.92 in Calm     80% 0.00 in meteobridge W/m2
04:39 67.6 °F 61.2 °F 29.92 in Calm     80% 0.00 in meteobridge W/m2
04:44 67.6 °F 61.2 °F 29.92 in Calm     80% 0.00 in meteobridge W/m2
04:49 67.6 °F 61.2 °F 29.92 in Calm     80% 0.00 in meteobridge W/m2
04:54 67.6 °F 61.2 °F 29.92 in Calm     80% 0.00 in meteobridge W/m2
04:59 67.6 °F 61.2 °F 29.92 in Calm     80% 0.00 in meteobridge W/m2
05:04 67.5 °F 61.2 °F 29.93 in Calm     80% 0.00 in meteobridge W/m2
05:09 67.5 °F 61.2 °F 29.92 in Calm     80% 0.00 in meteobridge W/m2
05:14 67.3 °F 61.5 °F 29.92 in Calm     82% 0.00 in meteobridge W/m2
05:19 66.7 °F 61.0 °F 29.92 in Calm     82% 0.00 in meteobridge W/m2
05:24 66.7 °F 61.3 °F 29.93 in Calm     83% 0.00 in meteobridge W/m2
05:29 66.6 °F 61.2 °F 29.92 in Calm     83% 0.00 in meteobridge W/m2
05:34 66.6 °F 61.2 °F 29.93 in Calm     83% 0.00 in meteobridge W/m2
05:39 66.7 °F 61.3 °F 29.93 in Calm     83% 0.00 in meteobridge W/m2
05:44 66.6 °F 61.5 °F 29.93 in Calm     84% 0.00 in meteobridge W/m2
05:49 66.6 °F 61.5 °F 29.93 in Calm     84% 0.00 in meteobridge W/m2
05:54 66.6 °F 61.5 °F 29.93 in Calm     84% 0.00 in meteobridge W/m2
05:59 66.6 °F 61.5 °F 29.93 in Calm     84% 0.00 in meteobridge W/m2
06:04 66.7 °F 61.7 °F 29.93 in Calm     84% 0.00 in meteobridge W/m2
06:09 66.7 °F 61.7 °F 29.93 in Calm     84% 0.00 in meteobridge W/m2
06:14 66.6 °F 61.9 °F 29.93 in Calm     85% 0.00 in meteobridge W/m2
06:19 66.4 °F 62.1 °F 29.93 in Calm     86% 0.00 in meteobridge W/m2
06:24 66.4 °F 62.1 °F 29.93 in Calm     86% 0.00 in meteobridge W/m2
06:29 66.4 °F 61.7 °F 29.93 in Calm     85% 0.00 in meteobridge W/m2
06:34 66.4 °F 61.7 °F 29.93 in Calm     85% 0.00 in meteobridge W/m2
06:39 66.4 °F 61.7 °F 29.93 in Calm     85% 0.00 in meteobridge W/m2
06:44 66.4 °F 61.7 °F 29.94 in Calm     85% 0.00 in meteobridge W/m2
06:49 66.6 °F 61.9 °F 29.94 in Calm     85% 0.00 in meteobridge W/m2
06:54 66.6 °F 61.9 °F 29.93 in Calm     85% 0.00 in meteobridge W/m2
06:59 66.4 °F 61.7 °F 29.94 in Calm     85% 0.00 in meteobridge W/m2
07:04 66.4 °F 61.7 °F 29.94 in Calm     85% 0.00 in meteobridge W/m2
07:09 66.6 °F 61.9 °F 29.95 in Calm     85% 0.00 in meteobridge W/m2
07:14 66.6 °F 61.9 °F 29.94 in Calm     85% 0.00 in meteobridge W/m2
07:19 66.4 °F 61.7 °F 29.95 in Calm     85% 0.00 in meteobridge W/m2
07:24 66.6 °F 61.9 °F 29.95 in Calm     85% 0.00 in meteobridge W/m2
07:29 66.6 °F 61.9 °F 29.95 in Calm     85% 0.00 in meteobridge W/m2
07:34 66.6 °F 61.9 °F 29.95 in Calm     85% 0.00 in meteobridge W/m2
07:39 66.6 °F 61.9 °F 29.95 in Calm     85% 0.00 in meteobridge W/m2
07:44 66.7 °F 62.4 °F 29.96 in Calm     86% 0.00 in meteobridge W/m2
07:49 66.6 °F 62.6 °F 29.96 in Calm     87% 0.01 in meteobridge W/m2
07:54 66.0 °F 62.6 °F 29.96 in Calm     89% 0.02 in meteobridge W/m2
07:59 65.7 °F 63.0 °F 29.96 in Calm     91% 0.03 in meteobridge W/m2
08:04 65.3 °F 62.6 °F 29.96 in Calm   1.0 mph 91% 0.04 in meteobridge W/m2
08:09 64.9 °F 62.8 °F 29.96 in ESE 2.0 mph 4.0 mph 93% 0.06 in meteobridge W/m2
08:14 64.6 °F 62.4 °F 29.96 in Calm     93% 0.12 in meteobridge W/m2
08:19 64.6 °F 62.8 °F 29.97 in Calm   1.0 mph 94% 0.15 in meteobridge W/m2
08:24 64.4 °F 63.0 °F 29.98 in Calm   2.0 mph 95% 0.19 in meteobridge W/m2
08:29 64.2 °F 62.8 °F 29.98 in SSE 0.9 mph 2.0 mph 95% 0.25 in meteobridge W/m2
08:34 64.0 °F 63.0 °F 29.98 in ENE 0.9 mph 2.0 mph 96% 0.32 in meteobridge W/m2
08:39 64.2 °F 63.1 °F 29.98 in East 0.9 mph 2.0 mph 96% 0.32 in meteobridge W/m2
08:44 64.2 °F 63.1 °F 29.98 in Calm     96% 0.32 in meteobridge W/m2
08:49 64.4 °F 63.3 °F 29.98 in Calm   1.0 mph 96% 0.31 in meteobridge W/m2
08:54 64.6 °F 63.5 °F 29.98 in Calm   1.0 mph 96% 0.30 in meteobridge W/m2
08:59 64.6 °F 63.5 °F 29.98 in Calm   1.0 mph 96% 0.29 in meteobridge W/m2
09:04 64.6 °F 63.5 °F 29.98 in Calm     96% 0.28 in meteobridge W/m2
09:09 64.8 °F 63.7 °F 29.97 in Calm   1.0 mph 96% 0.26 in meteobridge W/m2
09:14 64.9 °F 63.9 °F 29.98 in Calm     96% 0.20 in meteobridge W/m2
09:19 65.1 °F 64.0 °F 29.98 in Calm   1.0 mph 96% 0.17 in meteobridge W/m2
09:24 65.1 °F 63.7 °F 29.98 in Calm     95% 0.12 in meteobridge W/m2
09:29 65.5 °F 64.2 °F 29.98 in Calm   3.0 mph 96% 0.07 in meteobridge W/m2
09:34 65.5 °F 64.0 °F 29.98 in Calm   3.0 mph 95% 0.00 in meteobridge W/m2
09:39 65.3 °F 63.9 °F 29.99 in Calm     95% 0.00 in meteobridge W/m2
09:44 65.3 °F 63.9 °F 29.99 in Calm     95% 0.00 in meteobridge W/m2
09:49 65.3 °F 64.0 °F 29.99 in Calm   1.0 mph 96% 0.00 in meteobridge W/m2
09:54 65.1 °F 63.7 °F 29.99 in Calm   2.0 mph 95% 0.00 in meteobridge W/m2
09:59 65.1 °F 63.7 °F 30.00 in Calm     95% 0.00 in meteobridge W/m2
10:04 65.1 °F 63.7 °F 30.00 in Calm     95% 0.00 in meteobridge W/m2
10:09 65.1 °F 64.0 °F 30.00 in Calm   1.0 mph 96% 0.00 in meteobridge W/m2
10:14 65.1 °F 64.0 °F 29.99 in Calm   1.0 mph 96% 0.00 in meteobridge W/m2
10:19 65.3 °F 63.9 °F 30.00 in Calm   1.0 mph 95% 0.00 in meteobridge W/m2
10:24 65.5 °F 64.0 °F 30.00 in Calm   1.0 mph 95% 0.00 in meteobridge W/m2
10:29 65.7 °F 64.4 °F 30.00 in Calm   4.0 mph 96% 0.00 in meteobridge W/m2
10:34 65.8 °F 64.4 °F 30.00 in Calm     95% 0.00 in meteobridge W/m2
10:39 66.2 °F 64.4 °F 30.01 in Calm     94% 0.00 in meteobridge W/m2
10:44 66.4 °F 64.2 °F 30.01 in Calm   2.0 mph 93% 0.00 in meteobridge W/m2
10:48 66.6 °F 64.4 °F 30.01 in Calm     93% 0.00 in meteobridge W/m2
10:54 66.6 °F 64.2 °F 30.01 in Calm     92% 0.00 in meteobridge W/m2
10:59 66.6 °F 64.4 °F 30.01 in Calm   1.0 mph 93% 0.00 in meteobridge W/m2
11:04 66.7 °F 64.6 °F 30.01 in Calm     93% 0.00 in meteobridge W/m2
11:09 66.6 °F 64.8 °F 30.01 in Calm   1.0 mph 94% 0.00 in meteobridge W/m2
11:14 66.7 °F 64.6 °F 30.01 in Calm     93% 0.00 in meteobridge W/m2
11:19 66.7 °F 64.9 °F 30.01 in Calm     94% 0.00 in meteobridge W/m2
11:24 66.9 °F 64.6 °F 30.01 in Calm     92% 0.00 in meteobridge W/m2
11:29 66.9 °F 64.2 °F 30.01 in Calm     91% 0.00 in meteobridge W/m2
11:34 67.3 °F 65.1 °F 30.01 in Calm   1.0 mph 93% 0.00 in meteobridge W/m2
11:39 67.6 °F 65.5 °F 30.01 in Calm     93% 0.00 in meteobridge W/m2
11:44 67.8 °F 64.8 °F 30.01 in Calm   1.0 mph 90% 0.00 in meteobridge W/m2
11:49 68.0 °F 64.9 °F 30.01 in Calm     90% 0.00 in meteobridge W/m2
11:54 68.2 °F 65.5 °F 30.01 in Calm     91% 0.00 in meteobridge W/m2
11:59 68.5 °F 64.8 °F 30.01 in Calm     88% 0.00 in meteobridge W/m2
12:04 68.7 °F 64.8 °F 30.01 in Calm     87% 0.00 in meteobridge W/m2
12:09 69.3 °F 64.9 °F 30.01 in Calm     86% 0.00 in meteobridge W/m2
12:14 69.3 °F 65.5 °F 30.01 in Calm   1.0 mph 88% 0.00 in meteobridge W/m2
12:19 68.5 °F 64.6 °F 30.02 in Calm     87% 0.00 in meteobridge W/m2
12:24 68.0 °F 64.6 °F 30.01 in WNW 2.0 mph 3.0 mph 89% 0.03 in meteobridge W/m2
12:29 66.9 °F 63.9 °F 30.02 in Calm     90% 0.03 in meteobridge W/m2
12:34 66.4 °F 63.7 °F 30.02 in Calm     91% 0.04 in meteobridge W/m2
12:39 66.0 °F 63.9 °F 30.01 in Calm     93% 0.04 in meteobridge W/m2
12:44 65.8 °F 64.0 °F 30.01 in Calm     94% 0.04 in meteobridge W/m2
12:49 66.2 °F 64.9 °F 30.01 in Calm     96% 0.04 in meteobridge W/m2
12:54 66.6 °F 65.3 °F 30.00 in WNW 0.9 mph 1.0 mph 96% 0.04 in meteobridge W/m2
12:59 66.9 °F 65.1 °F 30.00 in NW 2.0 mph 2.0 mph 94% 0.04 in meteobridge W/m2
13:04 67.5 °F 66.0 °F 30.00 in Calm   1.0 mph 95% 0.04 in meteobridge W/m2
13:09 68.2 °F 65.8 °F 29.99 in Calm     92% 0.04 in meteobridge W/m2
13:14 68.5 °F 65.1 °F 29.99 in Calm   2.0 mph 89% 0.04 in meteobridge W/m2
13:19 69.1 °F 65.3 °F 29.99 in Calm     88% 0.04 in meteobridge W/m2
13:24 69.6 °F 65.7 °F 30.00 in ENE 0.9 mph 1.0 mph 87% 0.01 in meteobridge W/m2
13:29 70.0 °F 66.0 °F 29.99 in Calm   1.0 mph 87% 0.01 in meteobridge W/m2
13:34 70.3 °F 66.2 °F 29.99 in Calm     87% 0.00 in meteobridge W/m2
13:39 70.9 °F 64.8 °F 30.00 in Calm   5.0 mph 81% 0.00 in meteobridge W/m2
13:44 70.9 °F 64.0 °F 29.99 in Calm   1.0 mph 79% 0.00 in meteobridge W/m2
13:49 71.1 °F 64.9 °F 29.99 in Calm     81% 0.00 in meteobridge W/m2
13:54 71.2 °F 64.4 °F 29.99 in Calm   2.0 mph 79% 0.00 in meteobridge W/m2
13:59 71.6 °F 64.4 °F 29.99 in Calm   4.0 mph 78% 0.00 in meteobridge W/m2
14:04 72.0 °F 64.8 °F 29.98 in Calm     78% 0.00 in meteobridge W/m2
14:09 72.3 °F 64.4 °F 29.98 in ESE 0.9 mph 1.0 mph 76% 0.00 in meteobridge W/m2
14:14 72.5 °F 64.0 °F 29.98 in Calm   1.0 mph 75% 0.00 in meteobridge W/m2
14:19 72.9 °F 64.4 °F 29.98 in Calm   1.0 mph 75% 0.00 in meteobridge W/m2
14:24 73.4 °F 66.2 °F 29.98 in Calm   1.0 mph 78% 0.00 in meteobridge W/m2
14:29 73.8 °F 62.6 °F 29.98 in ESE 0.9 mph 1.0 mph 68% 0.00 in meteobridge W/m2
14:34 73.9 °F 61.9 °F 29.97 in ESE 4.0 mph 6.0 mph 66% 0.00 in meteobridge W/m2
14:39 74.1 °F 62.1 °F 29.97 in Calm   2.0 mph 66% 0.00 in meteobridge W/m2
14:44 74.5 °F 61.9 °F 29.97 in Calm   2.0 mph 65% 0.00 in meteobridge W/m2
14:49 74.3 °F 62.2 °F 29.97 in Calm   1.0 mph 66% 0.00 in meteobridge W/m2
14:54 74.5 °F 61.5 °F 29.97 in Calm   2.0 mph 64% 0.00 in meteobridge W/m2
14:59 74.8 °F 61.9 °F 29.97 in Calm   2.0 mph 64% 0.00 in meteobridge W/m2
15:04 75.0 °F 60.6 °F 29.97 in Calm   1.0 mph 61% 0.00 in meteobridge W/m2
15:09 74.8 °F 59.5 °F 29.97 in Calm   1.0 mph 59% 0.00 in meteobridge W/m2
15:14 74.8 °F 59.5 °F 29.98 in ENE 2.0 mph 2.0 mph 59% 0.00 in meteobridge W/m2
15:19 75.0 °F 59.2 °F 29.98 in Calm     58% 0.00 in meteobridge W/m2
15:24 75.0 °F 58.8 °F 29.98 in Calm   1.0 mph 57% 0.00 in meteobridge W/m2
15:29 75.2 °F 59.9 °F 29.98 in Calm   1.0 mph 59% 0.00 in meteobridge W/m2
15:34 75.6 °F 60.6 °F 29.98 in ENE 2.0 mph 3.0 mph 60% 0.00 in meteobridge W/m2
15:39 75.7 °F 59.9 °F 29.98 in Calm   2.0 mph 58% 0.00 in meteobridge W/m2
15:44 75.9 °F 58.1 °F 29.98 in Calm   1.0 mph 54% 0.00 in meteobridge W/m2
15:49 75.9 °F 60.6 °F 29.98 in Calm     59% 0.00 in meteobridge W/m2
15:54 75.9 °F 59.5 °F 29.98 in NNE 0.9 mph 1.0 mph 57% 0.00 in meteobridge W/m2
15:59 76.1 °F 59.7 °F 29.98 in East 2.0 mph 2.0 mph 57% 0.00 in meteobridge W/m2
16:04 76.1 °F 59.7 °F 29.98 in Calm   3.0 mph 57% 0.00 in meteobridge W/m2
16:09 75.9 °F 58.6 °F 29.98 in Calm   2.0 mph 55% 0.00 in meteobridge W/m2
16:14 75.9 °F 58.6 °F 29.98 in Calm   1.0 mph 55% 0.00 in meteobridge W/m2
16:19 76.1 °F 59.2 °F 29.98 in East 2.9 mph 3.0 mph 56% 0.00 in meteobridge W/m2
16:24 75.9 °F 59.2 °F 29.98 in Calm   1.0 mph 56% 0.00 in meteobridge W/m2
16:28 75.9 °F 58.6 °F 29.98 in Calm     55% 0.00 in meteobridge W/m2
16:34 75.9 °F 59.5 °F 29.97 in Calm     57% 0.00 in meteobridge W/m2
16:39 75.7 °F 58.5 °F 29.98 in East 2.9 mph 4.0 mph 55% 0.00 in meteobridge W/m2
16:44 75.6 °F 59.7 °F 29.98 in Calm   1.0 mph 58% 0.00 in meteobridge W/m2
16:49 75.6 °F 58.3 °F 29.98 in Calm   2.0 mph 55% 0.00 in meteobridge W/m2
16:54 75.6 °F 58.8 °F 29.98 in Calm     56% 0.00 in meteobridge W/m2
16:59 75.7 °F 58.5 °F 29.97 in ESE 2.0 mph 2.0 mph 55% 0.00 in meteobridge W/m2
17:04 75.7 °F 58.5 °F 29.97 in ESE 2.0 mph 2.0 mph 55% 0.00 in meteobridge W/m2
17:08 75.7 °F 57.4 °F 29.97 in SE 0.9 mph 4.0 mph 53% 0.00 in meteobridge W/m2
17:14 75.7 °F 57.9 °F 29.97 in Calm   1.0 mph 54% 0.00 in meteobridge W/m2
17:19 75.7 °F 58.5 °F 29.97 in Calm   1.0 mph 55% 0.00 in meteobridge W/m2
17:24 75.7 °F 57.9 °F 29.98 in SE 0.9 mph 4.0 mph 54% 0.00 in meteobridge W/m2
17:29 75.7 °F 57.9 °F 29.97 in Calm   1.0 mph 54% 0.00 in meteobridge W/m2
17:34 75.9 °F 56.5 °F 29.98 in Calm     51% 0.00 in meteobridge W/m2
17:39 75.9 °F 57.6 °F 29.98 in SE 0.9 mph 1.0 mph 53% 0.00 in meteobridge W/m2
17:44 75.7 °F 56.3 °F 29.97 in SE 0.9 mph 1.0 mph 51% 0.00 in meteobridge W/m2
17:49 75.6 °F 57.2 °F 29.97 in Calm     53% 0.00 in meteobridge W/m2
17:54 75.6 °F 57.2 °F 29.97 in Calm     53% 0.00 in meteobridge W/m2
17:59 75.4 °F 55.9 °F 29.97 in Calm     51% 0.00 in meteobridge W/m2
18:04 74.8 °F 56.1 °F 29.98 in ENE 0.9 mph 2.0 mph 52% 0.00 in meteobridge W/m2
18:09 74.8 °F 55.6 °F 29.98 in Calm     51% 0.00 in meteobridge W/m2
18:14 74.7 °F 56.5 °F 29.98 in Calm     53% 0.00 in meteobridge W/m2
18:19 74.7 °F 56.8 °F 29.98 in Calm     54% 0.00 in meteobridge W/m2
18:24 74.5 °F 57.2 °F 29.98 in Calm     55% 0.00 in meteobridge W/m2
18:29 74.3 °F 57.0 °F 29.99 in Calm     55% 0.00 in meteobridge W/m2
18:33 74.3 °F 58.1 °F 29.99 in Calm     57% 0.00 in meteobridge W/m2
18:39 74.1 °F 58.8 °F 29.98 in Calm     59% 0.00 in meteobridge W/m2
18:44 74.1 °F 58.5 °F 29.98 in Calm     58% 0.00 in meteobridge W/m2
18:49 73.9 °F 58.3 °F 29.98 in Calm     58% 0.00 in meteobridge W/m2
18:54 73.8 °F 58.5 °F 29.98 in Calm     59% 0.00 in meteobridge W/m2
18:59 73.6 °F 57.4 °F 29.98 in Calm     57% 0.00 in meteobridge W/m2
19:04 73.4 °F 58.6 °F 29.98 in Calm     60% 0.00 in meteobridge W/m2
19:09 73.0 °F 57.4 °F 29.98 in Calm     58% 0.00 in meteobridge W/m2
19:14 72.9 °F 58.1 °F 29.98 in Calm     60% 0.00 in meteobridge W/m2
19:19 72.7 °F 58.8 °F 29.98 in Calm     62% 0.00 in meteobridge W/m2
19:24 72.5 °F 59.2 °F 29.98 in Calm     63% 0.00 in meteobridge W/m2
19:29 72.0 °F 58.6 °F 29.99 in Calm     63% 0.00 in meteobridge W/m2
19:34 71.4 °F 58.6 °F 29.99 in Calm     64% 0.00 in meteobridge W/m2
19:39 71.1 °F 58.6 °F 29.99 in Calm     65% 0.00 in meteobridge W/m2
19:44 70.9 °F 58.5 °F 30.00 in Calm     65% 0.00 in meteobridge W/m2
19:49 70.5 °F 59.0 °F 29.99 in Calm     67% 0.00 in meteobridge W/m2
19:54 70.3 °F 58.8 °F 29.99 in Calm     67% 0.00 in meteobridge W/m2
19:59 70.0 °F 59.0 °F 30.00 in Calm     68% 0.00 in meteobridge W/m2
20:04 69.4 °F 58.8 °F 30.00 in Calm     69% 0.00 in meteobridge W/m2
20:09 69.3 °F 59.5 °F 30.01 in Calm     71% 0.00 in meteobridge W/m2
20:14 68.9 °F 59.2 °F 30.00 in Calm     71% 0.00 in meteobridge W/m2
20:19 68.5 °F 59.2 °F 30.00 in Calm     72% 0.00 in meteobridge W/m2
20:24 68.4 °F 59.4 °F 30.00 in Calm     73% 0.00 in meteobridge W/m2
20:29 68.0 °F 59.4 °F 30.00 in Calm     74% 0.00 in meteobridge W/m2
20:34 67.6 °F 59.0 °F 30.00 in Calm     74% 0.00 in meteobridge W/m2
20:39 67.5 °F 58.5 °F 30.00 in Calm     73% 0.00 in meteobridge W/m2
20:44 67.3 °F 58.6 °F 30.00 in Calm     74% 0.00 in meteobridge W/m2
20:49 66.9 °F 58.8 °F 30.01 in Calm     75% 0.00 in meteobridge W/m2
20:54 66.7 °F 59.4 °F 30.01 in Calm     77% 0.00 in meteobridge W/m2
20:59 66.6 °F 59.5 °F 30.01 in Calm     78% 0.00 in meteobridge W/m2
21:04 66.4 °F 59.4 °F 30.01 in Calm     78% 0.00 in meteobridge W/m2
21:09 66.4 °F 59.7 °F 30.01 in Calm     79% 0.00 in meteobridge W/m2
21:14 66.0 °F 59.7 °F 30.01 in Calm     80% 0.00 in meteobridge W/m2
21:19 65.8 °F 59.9 °F 30.01 in Calm     81% 0.00 in meteobridge W/m2
21:24 65.7 °F 59.7 °F 30.01 in Calm     81% 0.00 in meteobridge W/m2
21:29 65.5 °F 59.9 °F 30.01 in Calm     82% 0.00 in meteobridge W/m2
21:34 65.5 °F 59.9 °F 30.01 in Calm     82% 0.00 in meteobridge W/m2
21:39 65.1 °F 59.9 °F 30.01 in Calm     83% 0.00 in meteobridge W/m2
21:44 64.8 °F 59.9 °F 30.02 in Calm     84% 0.00 in meteobridge W/m2
21:49 64.6 °F 59.7 °F 30.02 in Calm     84% 0.00 in meteobridge W/m2
21:54 64.6 °F 59.9 °F 30.02 in Calm     85% 0.00 in meteobridge W/m2
21:59 64.2 °F 59.5 °F 30.02 in Calm     85% 0.00 in meteobridge W/m2
22:04 64.2 °F 59.5 °F 30.02 in Calm     85% 0.00 in meteobridge W/m2
22:08 64.0 °F 59.4 °F 30.02 in Calm     85% 0.00 in meteobridge W/m2
22:14 63.9 °F 59.5 °F 30.02 in Calm     86% 0.00 in meteobridge W/m2
22:19 63.9 °F 59.5 °F 30.03 in Calm     86% 0.00 in meteobridge W/m2
22:24 63.7 °F 59.4 °F 30.03 in Calm     86% 0.00 in meteobridge W/m2
22:29 63.7 °F 59.4 °F 30.03 in Calm     86% 0.00 in meteobridge W/m2
22:34 63.5 °F 59.5 °F 30.03 in Calm     87% 0.00 in meteobridge W/m2
22:39 63.3 °F 59.4 °F 30.03 in Calm     87% 0.00 in meteobridge W/m2
22:44 63.1 °F 59.2 °F 30.03 in Calm     87% 0.00 in meteobridge W/m2
22:49 63.1 °F 59.2 °F 30.03 in Calm   1.0 mph 87% 0.00 in meteobridge W/m2
22:54 63.0 °F 59.4 °F 30.03 in Calm     88% 0.00 in meteobridge W/m2
22:59 63.0 °F 59.4 °F 30.02 in Calm     88% 0.00 in meteobridge W/m2
23:04 63.0 °F 59.4 °F 30.02 in Calm     88% 0.00 in meteobridge W/m2
23:09 63.0 °F 59.0 °F 30.02 in Calm     87% 0.00 in meteobridge W/m2
23:14 62.8 °F 59.2 °F 30.02 in Calm     88% 0.00 in meteobridge W/m2
23:19 62.6 °F 59.0 °F 30.03 in Calm     88% 0.00 in meteobridge W/m2
23:24 62.4 °F 59.2 °F 30.03 in Calm     89% 0.00 in meteobridge W/m2
23:29 62.4 °F 59.2 °F 30.03 in Calm     89% 0.00 in meteobridge W/m2
23:34 62.4 °F 59.2 °F 30.03 in Calm     89% 0.00 in meteobridge W/m2
23:39 62.2 °F 59.0 °F 30.02 in Calm     89% 0.00 in meteobridge W/m2
23:44 62.1 °F 58.8 °F 30.02 in Calm     89% 0.00 in meteobridge W/m2
23:49 62.1 °F 58.8 °F 30.03 in Calm     89% 0.00 in meteobridge W/m2
23:54 61.9 °F 58.6 °F 30.03 in Calm     89% 0.00 in meteobridge W/m2
23:59 61.7 °F 58.8 °F 30.03 in Calm     90% 0.00 in meteobridge W/m2
EllijayWeather
Compliments of Weather Underground - 2.5 mb